createdAt,value
2022-11-05T00:00:01.467Z,15.15
2022-11-05T00:03:22.061Z,13.43
2022-11-05T00:06:42.143Z,12.53
2022-11-05T00:09:43.723Z,13.87
2022-11-05T00:13:03.780Z,13.07
2022-11-05T00:16:40.933Z,12.07
2022-11-05T00:19:42.512Z,14.45
2022-11-05T00:23:02.599Z,13.60
2022-11-05T00:26:05.712Z,12.63
2022-11-05T00:29:07.268Z,14.18
2022-11-05T00:32:08.887Z,12.45
2022-11-05T00:35:10.524Z,14.18
2022-11-05T00:38:12.145Z,13.70
2022-11-05T00:41:13.726Z,13.48
2022-11-05T00:44:33.572Z,12.07
2022-11-05T00:47:53.467Z,12.50
2022-11-05T00:50:59.603Z,14.73
2022-11-05T00:54:01.177Z,14.90
2022-11-05T00:57:04.789Z,12.48
2022-11-05T01:00:06.998Z,11.45
2022-11-05T01:03:19.172Z,12.82
2022-11-05T01:06:20.738Z,10.83
2022-11-05T01:09:22.301Z,11.80
2022-11-05T01:12:23.880Z,11.68
2022-11-05T01:15:25.450Z,11.20
2022-11-05T01:18:27.093Z,10.60
2022-11-05T01:21:28.654Z,9.50
2022-11-05T01:24:30.195Z,10.07
2022-11-05T01:27:31.836Z,13.27
2022-11-05T01:30:33.407Z,11.35
2022-11-05T01:33:34.952Z,10.17
2022-11-05T01:36:40.043Z,8.80
2022-11-05T01:39:41.640Z,10.05
2022-11-05T01:42:43.292Z,8.82
2022-11-05T01:45:46.285Z,9.10
2022-11-05T01:48:48.354Z,9.83
2022-11-05T01:51:53.407Z,8.40
2022-11-05T01:54:55.008Z,9.65
2022-11-05T01:57:56.570Z,9.70
2022-11-05T02:00:58.144Z,8.43
2022-11-05T02:04:01.554Z,9.27
2022-11-05T02:07:06.239Z,8.93
2022-11-05T02:10:13.953Z,8.82
2022-11-05T02:13:15.537Z,10.10
2022-11-05T02:16:37.485Z,9.93
2022-11-05T02:20:09.610Z,10.33
2022-11-05T02:23:59.501Z,10.40
2022-11-05T02:27:09.996Z,9.48
2022-11-05T02:30:23.750Z,8.80
2022-11-05T02:33:36.658Z,8.73
2022-11-05T02:36:46.703Z,8.95
2022-11-05T02:40:06.596Z,9.65
2022-11-05T02:43:35.600Z,9.07
2022-11-05T02:46:49.243Z,8.97
2022-11-05T02:50:06.555Z,8.35
2022-11-05T02:53:20.978Z,10.25
2022-11-05T02:56:24.710Z,9.00
2022-11-05T02:59:26.312Z,10.63
2022-11-05T03:02:28.107Z,10.13
2022-11-05T03:05:37.912Z,10.93
2022-11-05T03:08:58.494Z,11.45
2022-11-05T03:12:19.297Z,10.68
2022-11-05T03:15:29.839Z,9.80
2022-11-05T03:18:42.974Z,9.63
2022-11-05T03:22:00.926Z,10.15
2022-11-05T03:25:07.475Z,10.93
2022-11-05T03:28:09.101Z,10.80
2022-11-05T03:31:11.549Z,9.55
2022-11-05T03:34:13.118Z,10.38
2022-11-05T03:37:14.835Z,9.82
2022-11-05T03:40:16.694Z,9.45
2022-11-05T03:43:18.292Z,10.93
2022-11-05T03:46:44.336Z,10.32
2022-11-05T03:50:20.755Z,10.95
2022-11-05T03:53:30.434Z,10.77
2022-11-05T03:56:58.342Z,10.05
2022-11-05T03:59:59.946Z,10.35
2022-11-05T04:03:01.685Z,9.07
2022-11-05T04:06:23.345Z,8.57
2022-11-05T04:09:47.559Z,9.10
2022-11-05T04:13:07.544Z,10.50
2022-11-05T04:16:27.563Z,8.52
2022-11-05T04:19:47.466Z,9.45
2022-11-05T04:23:07.244Z,9.55
2022-11-05T04:26:08.950Z,9.02
2022-11-05T04:29:29.371Z,9.05
2022-11-05T04:32:30.980Z,9.43
2022-11-05T04:35:37.106Z,9.43
2022-11-05T04:38:38.653Z,10.93
2022-11-05T04:41:40.253Z,8.85
2022-11-05T04:44:41.820Z,10.57
2022-11-05T04:47:43.379Z,9.50
2022-11-05T04:50:44.982Z,9.65
2022-11-05T04:53:46.508Z,8.82
2022-11-05T04:56:51.658Z,7.97
2022-11-05T04:59:55.100Z,9.10
2022-11-05T05:02:56.652Z,7.82
2022-11-05T05:06:03.997Z,8.73
2022-11-05T05:09:05.899Z,8.55
2022-11-05T05:12:11.160Z,8.90
2022-11-05T05:15:12.760Z,8.60
2022-11-05T05:18:14.310Z,9.50
2022-11-05T05:21:35.261Z,8.50
2022-11-05T05:24:36.907Z,8.68
2022-11-05T05:27:38.464Z,8.17
2022-11-05T05:30:40.087Z,9.48
2022-11-05T05:33:41.659Z,9.63
2022-11-05T05:36:43.252Z,8.98
2022-11-05T05:39:45.964Z,8.43
2022-11-05T05:42:47.563Z,8.43
2022-11-05T05:45:49.125Z,8.50
2022-11-05T05:48:51.444Z,8.27
2022-11-05T05:51:53.019Z,7.40
2022-11-05T05:54:54.579Z,6.68
2022-11-05T05:57:56.194Z,8.90
2022-11-05T06:01:00.536Z,7.22
2022-11-05T06:04:02.099Z,7.30
2022-11-05T06:07:03.764Z,6.53
2022-11-05T06:10:06.064Z,8.57
2022-11-05T06:13:07.822Z,7.13
2022-11-05T06:16:09.595Z,8.07
2022-11-05T06:19:11.163Z,7.50
2022-11-05T06:22:12.746Z,7.70
2022-11-05T06:25:14.327Z,7.05
2022-11-05T06:28:15.878Z,6.67
2022-11-05T06:31:17.453Z,7.13
2022-11-05T06:34:19.008Z,7.85
2022-11-05T06:37:20.583Z,7.50
2022-11-05T06:40:22.155Z,7.30
2022-11-05T06:43:23.755Z,8.70
2022-11-05T06:46:25.325Z,7.60
2022-11-05T06:49:26.894Z,7.45
2022-11-05T06:52:31.274Z,7.78
2022-11-05T06:55:32.889Z,7.70
2022-11-05T06:58:34.665Z,7.03
2022-11-05T07:01:37.458Z,7.35
2022-11-05T07:04:39.173Z,7.22
2022-11-05T07:07:40.888Z,7.73
2022-11-05T07:10:42.487Z,8.65
2022-11-05T07:13:44.059Z,7.93
2022-11-05T07:16:45.726Z,9.57
2022-11-05T07:19:47.297Z,7.32
2022-11-05T07:22:48.911Z,7.20
2022-11-05T07:25:50.498Z,7.60
2022-11-05T07:28:52.138Z,6.93
2022-11-05T07:31:53.771Z,6.55
2022-11-05T07:34:55.302Z,6.22
2022-11-05T07:37:56.924Z,5.53
2022-11-05T07:41:01.500Z,7.00
2022-11-05T07:44:07.470Z,6.55
2022-11-05T07:47:09.082Z,7.20
2022-11-05T07:50:10.655Z,6.78
2022-11-05T07:53:14.271Z,5.63
2022-11-05T07:56:16.338Z,6.97
2022-11-05T07:59:17.914Z,6.18
2022-11-05T08:02:19.685Z,5.28
2022-11-05T08:05:21.373Z,5.60
2022-11-05T08:08:22.957Z,5.80
2022-11-05T08:11:24.553Z,6.35
2022-11-05T08:14:26.103Z,6.05
2022-11-05T08:17:27.723Z,7.18
2022-11-05T08:20:29.425Z,7.30
2022-11-05T08:23:31.377Z,5.60
2022-11-05T08:26:32.957Z,7.00
2022-11-05T08:29:34.536Z,6.55
2022-11-05T08:32:36.149Z,7.78
2022-11-05T08:35:38.125Z,6.37
2022-11-05T08:38:39.730Z,6.07
2022-11-05T08:41:41.393Z,7.20
2022-11-05T08:44:42.997Z,6.57
2022-11-05T08:47:47.686Z,6.22
2022-11-05T08:50:49.572Z,7.10
2022-11-05T08:53:51.121Z,6.07
2022-11-05T08:56:52.814Z,6.88
2022-11-05T08:59:54.395Z,6.55
2022-11-05T09:03:00.807Z,6.93
2022-11-05T09:06:02.408Z,6.93
2022-11-05T09:09:04.115Z,6.75
2022-11-05T09:12:12.409Z,6.22
2022-11-05T09:15:15.011Z,6.25
2022-11-05T09:18:20.268Z,5.57
2022-11-05T09:21:21.962Z,5.90
2022-11-05T09:24:23.516Z,6.22
2022-11-05T09:27:25.105Z,5.95
2022-11-05T09:30:26.683Z,7.65
2022-11-05T09:33:28.345Z,6.00
2022-11-05T09:36:29.942Z,6.00
2022-11-05T09:39:31.534Z,6.13
2022-11-05T09:42:39.214Z,6.43
2022-11-05T09:45:40.795Z,7.32
2022-11-05T09:48:42.420Z,6.10
2022-11-05T09:51:44.030Z,5.77
2022-11-05T09:54:46.097Z,6.43
2022-11-05T09:57:53.444Z,6.53
2022-11-05T10:00:55.185Z,7.97
2022-11-05T10:03:58.334Z,7.23
2022-11-05T10:07:03.064Z,6.97
2022-11-05T10:10:06.817Z,7.90
2022-11-05T10:13:40.332Z,7.00
2022-11-05T10:16:48.803Z,6.88
2022-11-05T10:19:58.687Z,7.60
2022-11-05T10:23:18.055Z,7.67
2022-11-05T10:26:21.997Z,7.32
2022-11-05T10:29:29.601Z,7.47
2022-11-05T10:32:39.797Z,6.55
2022-11-05T10:36:05.707Z,7.20
2022-11-05T10:39:17.760Z,7.57
2022-11-05T10:42:47.218Z,7.70
2022-11-05T10:46:05.850Z,7.35
2022-11-05T10:49:30.460Z,6.57
2022-11-05T10:52:34.006Z,6.83
2022-11-05T10:55:41.534Z,7.30
2022-11-05T10:58:53.254Z,8.32
2022-11-05T11:02:21.236Z,9.20
2022-11-05T11:05:32.909Z,8.15
2022-11-05T11:08:35.645Z,7.00
2022-11-05T11:11:39.152Z,7.27
2022-11-05T11:14:40.711Z,6.78
2022-11-05T11:17:45.960Z,8.10
2022-11-05T11:20:47.587Z,8.75
2022-11-05T11:24:03.102Z,6.97
2022-11-05T11:27:06.933Z,7.30
2022-11-05T11:30:17.144Z,7.00
2022-11-05T11:33:26.097Z,7.75
2022-11-05T11:36:33.820Z,7.53
2022-11-05T11:39:35.427Z,8.10
2022-11-05T11:42:39.424Z,6.20
2022-11-05T11:45:48.945Z,7.70
2022-11-05T11:48:53.701Z,7.53
2022-11-05T11:51:59.206Z,7.53
2022-11-05T11:55:21.724Z,7.97
2022-11-05T11:58:25.287Z,7.07
2022-11-05T12:01:35.801Z,7.30
2022-11-05T12:05:14.426Z,7.90
2022-11-05T12:08:25.957Z,6.90
2022-11-05T12:11:41.967Z,8.23
2022-11-05T12:15:04.120Z,7.30
2022-11-05T12:18:09.736Z,6.65
2022-11-05T12:21:47.816Z,7.18
2022-11-05T12:25:02.704Z,8.98
2022-11-05T12:29:04.671Z,7.40
2022-11-05T12:32:16.271Z,6.80
2022-11-05T12:35:57.628Z,9.93
2022-11-05T12:39:19.297Z,8.02
2022-11-05T12:42:45.113Z,8.73
2022-11-05T12:45:58.644Z,7.53
2022-11-05T12:49:18.453Z,8.17
2022-11-05T12:52:44.732Z,9.00
2022-11-05T12:55:49.439Z,8.43
2022-11-05T12:58:55.368Z,8.02
2022-11-05T13:02:17.398Z,9.00
2022-11-05T13:05:46.378Z,7.50
2022-11-05T13:09:03.544Z,7.82
2022-11-05T13:12:13.250Z,8.20
2022-11-05T13:15:25.027Z,9.35
2022-11-05T13:18:30.534Z,7.67
2022-11-05T13:21:35.538Z,8.57
2022-11-05T13:24:45.011Z,8.57
2022-11-05T13:28:01.803Z,7.72
2022-11-05T13:31:05.396Z,8.82
2022-11-05T13:34:11.057Z,8.93
2022-11-05T13:37:34.611Z,8.53
2022-11-05T13:40:51.825Z,7.40
2022-11-05T13:44:08.696Z,8.88
2022-11-05T13:47:19.496Z,9.77
2022-11-05T13:51:00.172Z,7.03
2022-11-05T13:54:10.758Z,7.90
2022-11-05T13:57:49.759Z,9.13
2022-11-05T14:01:14.959Z,7.65
2022-11-05T14:04:25.633Z,8.13
2022-11-05T14:07:28.196Z,8.00
2022-11-05T14:10:47.377Z,7.40
2022-11-05T14:13:55.490Z,7.78
2022-11-05T14:17:09.223Z,8.23
2022-11-05T14:20:35.587Z,7.72
2022-11-05T14:23:40.577Z,7.97
2022-11-05T14:26:42.151Z,7.60
2022-11-05T14:29:49.929Z,8.38
2022-11-05T14:32:53.154Z,7.70
2022-11-05T14:36:20.632Z,8.82
2022-11-05T14:39:22.960Z,7.53
2022-11-05T14:42:30.981Z,8.00
2022-11-05T14:45:37.718Z,9.45
2022-11-05T14:48:40.317Z,10.50
2022-11-05T14:51:45.889Z,9.25
2022-11-05T14:54:52.353Z,8.00
2022-11-05T14:57:56.876Z,7.43
2022-11-05T15:00:58.968Z,8.38
2022-11-05T15:04:21.710Z,8.27
2022-11-05T15:07:23.375Z,7.68
2022-11-05T15:10:30.461Z,8.10
2022-11-05T15:13:34.495Z,8.00
2022-11-05T15:16:40.392Z,7.82
2022-11-05T15:19:42.038Z,7.57
2022-11-05T15:22:45.263Z,7.95
2022-11-05T15:26:07.533Z,9.33
2022-11-05T15:29:28.821Z,8.23
2022-11-05T15:32:34.608Z,9.23
2022-11-05T15:35:41.416Z,8.57
2022-11-05T15:39:08.115Z,9.15
2022-11-05T15:42:25.677Z,8.23
2022-11-05T15:45:27.247Z,8.50
2022-11-05T15:48:29.079Z,8.93
2022-11-05T15:51:30.648Z,9.52
2022-11-05T15:54:32.600Z,8.85
2022-11-05T15:57:37.974Z,8.67
2022-11-05T16:00:42.332Z,9.77
2022-11-05T16:03:43.915Z,8.35
2022-11-05T16:06:52.500Z,8.63
2022-11-05T16:09:58.590Z,8.60
2022-11-05T16:13:38.361Z,9.10
2022-11-05T16:16:39.980Z,9.27
2022-11-05T16:19:42.994Z,9.45
2022-11-05T16:22:45.831Z,8.98
2022-11-05T16:25:47.525Z,9.07
2022-11-05T16:28:52.267Z,10.23
2022-11-05T16:31:54.375Z,9.67
2022-11-05T16:35:00.584Z,11.23
2022-11-05T16:38:02.937Z,9.85
2022-11-05T16:41:04.483Z,10.20
2022-11-05T16:44:06.079Z,9.97
2022-11-05T16:47:07.995Z,11.20
2022-11-05T16:50:16.498Z,10.35
2022-11-05T16:53:18.162Z,9.20
2022-11-05T16:56:20.656Z,10.63
2022-11-05T16:59:22.297Z,9.97
2022-11-05T17:02:24.012Z,11.00
2022-11-05T17:05:28.769Z,9.95
2022-11-05T17:08:33.678Z,10.32
2022-11-05T17:11:35.277Z,11.55
2022-11-05T17:14:36.896Z,8.83
2022-11-05T17:17:38.449Z,9.17
2022-11-05T17:20:44.839Z,10.57
2022-11-05T17:23:50.438Z,9.45
2022-11-05T17:26:52.025Z,9.00
2022-11-05T17:29:53.593Z,8.43
2022-11-05T17:32:55.377Z,9.07
2022-11-05T17:35:57.047Z,8.48
2022-11-05T17:39:01.836Z,9.48
2022-11-05T17:42:03.465Z,8.55
2022-11-05T17:45:05.588Z,9.43
2022-11-05T17:48:09.302Z,10.83
2022-11-05T17:51:12.206Z,9.25
2022-11-05T17:54:16.749Z,8.40
2022-11-05T17:57:18.394Z,10.43
2022-11-05T18:00:21.608Z,8.97
2022-11-05T18:03:23.214Z,8.50
2022-11-05T18:06:24.831Z,8.98
2022-11-05T18:09:29.934Z,9.68
2022-11-05T18:12:31.522Z,10.25
2022-11-05T18:15:33.265Z,9.20
2022-11-05T18:18:35.086Z,10.27
2022-11-05T18:21:36.793Z,10.05
2022-11-05T18:24:38.618Z,9.50
2022-11-05T18:27:40.604Z,9.90
2022-11-05T18:30:42.258Z,10.13
2022-11-05T18:33:43.929Z,10.87
2022-11-05T18:36:45.698Z,10.05
2022-11-05T18:39:50.442Z,8.63
2022-11-05T18:42:56.351Z,8.55
2022-11-05T18:45:57.991Z,8.17
2022-11-05T18:48:59.782Z,9.30
2022-11-05T18:52:01.367Z,8.45
2022-11-05T18:55:03.005Z,8.50
2022-11-05T18:58:08.652Z,8.77
2022-11-05T19:01:16.148Z,8.23
2022-11-05T19:04:20.228Z,9.03
2022-11-05T19:07:23.833Z,7.72
2022-11-05T19:10:25.447Z,8.15
2022-11-05T19:13:27.047Z,9.65
2022-11-05T19:16:29.445Z,9.30
2022-11-05T19:19:31.095Z,10.47
2022-11-05T19:22:32.844Z,11.48
2022-11-05T19:25:34.434Z,10.23
2022-11-05T19:28:40.319Z,8.82
2022-11-05T19:31:42.041Z,8.20
2022-11-05T19:34:43.644Z,9.47
2022-11-05T19:37:45.286Z,8.82
2022-11-05T19:40:47.020Z,8.32
2022-11-05T19:43:48.724Z,7.93
2022-11-05T19:46:50.304Z,8.80
2022-11-05T19:49:51.835Z,8.30
2022-11-05T19:52:53.438Z,8.50
2022-11-05T19:55:54.995Z,8.27
2022-11-05T19:58:56.816Z,9.52
2022-11-05T20:01:58.546Z,8.20
2022-11-05T20:05:00.169Z,8.23
2022-11-05T20:08:01.804Z,8.90
2022-11-05T20:11:03.468Z,8.32
2022-11-05T20:14:05.140Z,9.13
2022-11-05T20:17:06.731Z,8.03
2022-11-05T20:20:08.800Z,9.00
2022-11-05T20:23:10.716Z,7.85
2022-11-05T20:26:17.528Z,8.35
2022-11-05T20:29:19.138Z,7.80
2022-11-05T20:32:20.735Z,9.50
2022-11-05T20:35:23.137Z,9.47
2022-11-05T20:38:24.736Z,8.95
2022-11-05T20:41:26.303Z,10.68
2022-11-05T20:44:27.914Z,8.93
2022-11-05T20:47:29.501Z,8.50
2022-11-05T20:50:31.085Z,9.43
2022-11-05T20:53:32.640Z,8.88
2022-11-05T20:56:37.406Z,9.32
2022-11-05T20:59:39.002Z,8.10
2022-11-05T21:02:41.876Z,8.40
2022-11-05T21:05:47.466Z,7.73
2022-11-05T21:08:50.058Z,12.07
2022-11-05T21:12:13.293Z,8.23
2022-11-05T21:15:15.093Z,9.45
2022-11-05T21:18:20.625Z,9.17
2022-11-05T21:21:22.410Z,9.60
2022-11-05T21:24:23.972Z,9.05
2022-11-05T21:27:28.406Z,10.30
2022-11-05T21:30:30.068Z,9.95
2022-11-05T21:33:31.755Z,10.07
2022-11-05T21:36:33.312Z,8.97
2022-11-05T21:39:34.960Z,9.25
2022-11-05T21:42:39.909Z,9.70
2022-11-05T21:45:42.077Z,8.98
2022-11-05T21:48:43.675Z,10.00
2022-11-05T21:52:03.862Z,8.87
2022-11-05T21:55:40.968Z,10.05
2022-11-05T21:59:00.948Z,10.10
2022-11-05T22:02:03.087Z,9.95
2022-11-05T22:05:05.728Z,9.80
2022-11-05T22:08:07.505Z,9.83
2022-11-05T22:11:09.035Z,12.15
2022-11-05T22:14:14.064Z,10.40
2022-11-05T22:17:18.928Z,9.65
2022-11-05T22:20:20.552Z,9.50
2022-11-05T22:23:22.200Z,11.07
2022-11-05T22:26:24.419Z,10.45
2022-11-05T22:29:26.304Z,10.65
2022-11-05T22:32:27.919Z,9.98
2022-11-05T22:35:29.511Z,9.40
2022-11-05T22:38:31.258Z,10.67
2022-11-05T22:41:32.943Z,10.02
2022-11-05T22:44:34.570Z,10.38
2022-11-05T22:47:36.272Z,9.95
2022-11-05T22:50:38.173Z,9.20
2022-11-05T22:53:40.580Z,9.50
2022-11-05T22:56:42.563Z,9.77
2022-11-05T22:59:44.158Z,10.35
2022-11-05T23:02:45.938Z,9.68
2022-11-05T23:05:47.604Z,9.73
2022-11-05T23:09:07.739Z,10.60
2022-11-05T23:12:36.775Z,10.00
2022-11-05T23:16:17.476Z,10.48
2022-11-05T23:19:37.882Z,11.23
2022-11-05T23:22:57.661Z,12.73
2022-11-05T23:25:59.792Z,12.37
2022-11-05T23:29:05.687Z,13.07
2022-11-05T23:32:25.490Z,13.20
2022-11-05T23:35:45.563Z,13.88
2022-11-05T23:38:47.126Z,14.10
2022-11-05T23:42:07.364Z,14.93
2022-11-05T23:45:31.791Z,14.35
2022-11-05T23:48:35.003Z,13.80
2022-11-05T23:51:36.554Z,14.15
2022-11-05T23:54:38.123Z,14.17
2022-11-05T23:57:40.833Z,16.77
